sensor_id;sensor_type;location;lat;lon;timestamp;pressure;altitude;pressure_sealevel;temperature;humidity
52839;BME280;39219;53.678;9.856;2022-12-20T00:01:56;101128.50;;;6.22;100.00
52839;BME280;39219;53.678;9.856;2022-12-20T00:04:22;101117.97;;;6.27;100.00
52839;BME280;39219;53.678;9.856;2022-12-20T00:06:48;101117.06;;;6.31;100.00
52839;BME280;39219;53.678;9.856;2022-12-20T00:09:15;101118.84;;;6.27;100.00
52839;BME280;39219;53.678;9.856;2022-12-20T00:11:41;101117.97;;;6.31;100.00
52839;BME280;39219;53.678;9.856;2022-12-20T00:14:10;101119.72;;;6.37;100.00
52839;BME280;39219;53.678;9.856;2022-12-20T00:16:36;101115.34;;;6.34;100.00
52839;BME280;39219;53.678;9.856;2022-12-20T00:19:05;101097.75;;;6.33;100.00
52839;BME280;39219;53.678;9.856;2022-12-20T00:21:33;101105.63;;;6.32;100.00
52839;BME280;39219;53.678;9.856;2022-12-20T00:24:00;101122.34;;;6.34;100.00
52839;BME280;39219;53.678;9.856;2022-12-20T00:26:28;101109.19;;;6.39;100.00
52839;BME280;39219;53.678;9.856;2022-12-20T00:28:56;101108.28;;;6.41;100.00
52839;BME280;39219;53.678;9.856;2022-12-20T00:31:26;101104.75;;;6.42;100.00
52839;BME280;39219;53.678;9.856;2022-12-20T00:33:55;101103.91;;;6.39;100.00
52839;BME280;39219;53.678;9.856;2022-12-20T00:36:23;101099.50;;;6.42;100.00
52839;BME280;39219;53.678;9.856;2022-12-20T00:38:52;101092.44;;;6.38;100.00
52839;BME280;39219;53.678;9.856;2022-12-20T00:41:20;101099.50;;;6.36;100.00
52839;BME280;39219;53.678;9.856;2022-12-20T00:43:47;101089.81;;;6.47;100.00
52839;BME280;39219;53.678;9.856;2022-12-20T00:46:16;101089.81;;;6.44;100.00
52839;BME280;39219;53.678;9.856;2022-12-20T00:48:44;101095.09;;;6.41;100.00
52839;BME280;39219;53.678;9.856;2022-12-20T00:51:11;101092.47;;;6.40;100.00
52839;BME280;39219;53.678;9.856;2022-12-20T00:53:38;101079.25;;;6.32;100.00
52839;BME280;39219;53.678;9.856;2022-12-20T00:56:06;101088.09;;;6.21;100.00
52839;BME280;39219;53.678;9.856;2022-12-20T00:58:34;101088.94;;;6.22;100.00
52839;BME280;39219;53.678;9.856;2022-12-20T01:01:01;101088.06;;;6.23;100.00
52839;BME280;39219;53.678;9.856;2022-12-20T01:03:27;101074.03;;;6.16;100.00
52839;BME280;39219;53.678;9.856;2022-12-20T01:05:57;101077.53;;;6.29;100.00
52839;BME280;39219;53.678;9.856;2022-12-20T01:08:24;101076.66;;;6.27;100.00
52839;BME280;39219;53.678;9.856;2022-12-20T01:10:57;101074.88;;;6.29;100.00
52839;BME280;39219;53.678;9.856;2022-12-20T01:13:25;101079.28;;;6.30;100.00
52839;BME280;39219;53.678;9.856;2022-12-20T01:15:52;101083.69;;;6.28;100.00
52839;BME280;39219;53.678;9.856;2022-12-20T01:18:18;101090.69;;;6.37;100.00
52839;BME280;39219;53.678;9.856;2022-12-20T01:20:45;101081.91;;;6.43;100.00
52839;BME280;39219;53.678;9.856;2022-12-20T01:23:12;101083.66;;;6.51;100.00
52839;BME280;39219;53.678;9.856;2022-12-20T01:25:39;101083.66;;;6.53;100.00
52839;BME280;39219;53.678;9.856;2022-12-20T01:28:05;101076.63;;;6.61;100.00
52839;BME280;39219;53.678;9.856;2022-12-20T01:30:32;101082.75;;;6.65;100.00
52839;BME280;39219;53.678;9.856;2022-12-20T01:32:58;101077.47;;;6.65;100.00
52839;BME280;39219;53.678;9.856;2022-12-20T01:35:25;101086.25;;;6.69;100.00
52839;BME280;39219;53.678;9.856;2022-12-20T01:37:51;101083.63;;;6.70;100.00
52839;BME280;39219;53.678;9.856;2022-12-20T01:40:19;101081.84;;;6.67;100.00
52839;BME280;39219;53.678;9.856;2022-12-20T01:42:45;101083.63;;;6.65;100.00
52839;BME280;39219;53.678;9.856;2022-12-20T01:45:19;101075.72;;;6.67;100.00
52839;BME280;39219;53.678;9.856;2022-12-20T01:47:48;101072.19;;;6.66;100.00
52839;BME280;39219;53.678;9.856;2022-12-20T01:50:15;101058.09;;;6.71;100.00
52839;BME280;39219;53.678;9.856;2022-12-20T01:52:44;101060.75;;;6.67;100.00
52839;BME280;39219;53.678;9.856;2022-12-20T01:55:15;101059.84;;;6.72;100.00
52839;BME280;39219;53.678;9.856;2022-12-20T01:57:47;101059.00;;;6.74;100.00
52839;BME280;39219;53.678;9.856;2022-12-20T02:00:16;101066.88;;;6.79;100.00
52839;BME280;39219;53.678;9.856;2022-12-20T02:02:44;101063.34;;;6.83;100.00
52839;BME280;39219;53.678;9.856;2022-12-20T02:05:12;101069.50;;;6.82;100.00
52839;BME280;39219;53.678;9.856;2022-12-20T02:07:40;101062.47;;;6.86;100.00
52839;BME280;39219;53.678;9.856;2022-12-20T02:10:10;101057.19;;;6.89;100.00
52839;BME280;39219;53.678;9.856;2022-12-20T02:12:39;101067.75;;;6.78;100.00
52839;BME280;39219;53.678;9.856;2022-12-20T02:15:22;101068.63;;;6.83;100.00
52839;BME280;39219;53.678;9.856;2022-12-20T02:18:00;101061.59;;;6.87;100.00
52839;BME280;39219;53.678;9.856;2022-12-20T02:20:49;101053.66;;;6.91;100.00
52839;BME280;39219;53.678;9.856;2022-12-20T02:23:48;101045.72;;;6.91;100.00
52839;BME280;39219;53.678;9.856;2022-12-20T02:26:40;101042.22;;;6.94;100.00
52839;BME280;39219;53.678;9.856;2022-12-20T02:29:21;101063.31;;;6.95;100.00
52839;BME280;39219;53.678;9.856;2022-12-20T02:31:54;101046.56;;;7.01;100.00
52839;BME280;39219;53.678;9.856;2022-12-20T02:34:25;101042.16;;;7.00;100.00
52839;BME280;39219;53.678;9.856;2022-12-20T02:36:51;101044.78;;;7.06;100.00
52839;BME280;39219;53.678;9.856;2022-12-20T02:39:18;101042.16;;;7.05;100.00
52839;BME280;39219;53.678;9.856;2022-12-20T02:41:50;101043.88;;;7.10;100.00
52839;BME280;39219;53.678;9.856;2022-12-20T02:44:20;101043.91;;;7.09;100.00
52839;BME280;39219;53.678;9.856;2022-12-20T02:47:11;101036.84;;;7.11;100.00
52839;BME280;39219;53.678;9.856;2022-12-20T02:49:39;101035.97;;;7.10;100.00
52839;BME280;39219;53.678;9.856;2022-12-20T02:52:08;101032.44;;;7.16;100.00
52839;BME280;39219;53.678;9.856;2022-12-20T02:54:36;101032.41;;;7.21;100.00
52839;BME280;39219;53.678;9.856;2022-12-20T02:57:08;101031.53;;;7.17;100.00
52839;BME280;39219;53.678;9.856;2022-12-20T02:59:40;101019.19;;;7.21;100.00
52839;BME280;39219;53.678;9.856;2022-12-20T03:02:10;101008.63;;;7.22;100.00
52839;BME280;39219;53.678;9.856;2022-12-20T03:04:38;101012.16;;;7.21;100.00
52839;BME280;39219;53.678;9.856;2022-12-20T03:07:08;101013.91;;;7.21;100.00
52839;BME280;39219;53.678;9.856;2022-12-20T03:09:36;101020.94;;;7.23;100.00
52839;BME280;39219;53.678;9.856;2022-12-20T03:12:04;101016.56;;;7.22;100.00
52839;BME280;39219;53.678;9.856;2022-12-20T03:14:31;101014.75;;;7.26;100.00
52839;BME280;39219;53.678;9.856;2022-12-20T03:16:57;101002.41;;;7.28;100.00
52839;BME280;39219;53.678;9.856;2022-12-20T03:19:25;101020.00;;;7.32;100.00
52839;BME280;39219;53.678;9.856;2022-12-20T03:21:51;101013.88;;;7.29;100.00
52839;BME280;39219;53.678;9.856;2022-12-20T03:24:18;101017.38;;;7.31;100.00
52839;BME280;39219;53.678;9.856;2022-12-20T03:26:44;101016.47;;;7.35;100.00
52839;BME280;39219;53.678;9.856;2022-12-20T03:29:11;101020.00;;;7.35;100.00
52839;BME280;39219;53.678;9.856;2022-12-20T03:31:37;101017.34;;;7.34;100.00
52839;BME280;39219;53.678;9.856;2022-12-20T03:34:04;101011.16;;;7.43;100.00
52839;BME280;39219;53.678;9.856;2022-12-20T03:36:32;101022.56;;;7.46;100.00
52839;BME280;39219;53.678;9.856;2022-12-20T03:38:58;101007.56;;;7.51;100.00
52839;BME280;39219;53.678;9.856;2022-12-20T03:41:26;101017.25;;;7.54;100.00
52839;BME280;39219;53.678;9.856;2022-12-20T03:43:52;101019.88;;;7.55;100.00
52839;BME280;39219;53.678;9.856;2022-12-20T03:46:19;101022.50;;;7.55;100.00
52839;BME280;39219;53.678;9.856;2022-12-20T03:48:45;101007.53;;;7.59;100.00
52839;BME280;39219;53.678;9.856;2022-12-20T03:51:12;101003.91;;;7.66;100.00
52839;BME280;39219;53.678;9.856;2022-12-20T03:53:39;101012.75;;;7.67;100.00
52839;BME280;39219;53.678;9.856;2022-12-20T03:56:06;101011.84;;;7.68;100.00
52839;BME280;39219;53.678;9.856;2022-12-20T03:58:32;101014.47;;;7.74;100.00
52839;BME280;39219;53.678;9.856;2022-12-20T04:00:59;100997.66;;;7.81;100.00
52839;BME280;39219;53.678;9.856;2022-12-20T04:03:25;101004.69;;;7.81;100.00
52839;BME280;39219;53.678;9.856;2022-12-20T04:05:52;101008.22;;;7.81;100.00
52839;BME280;39219;53.678;9.856;2022-12-20T04:08:18;101020.59;;;7.76;100.00
52839;BME280;39219;53.678;9.856;2022-12-20T04:10:46;101010.09;;;7.70;100.00
52839;BME280;39219;53.678;9.856;2022-12-20T04:13:30;101015.31;;;7.76;100.00
52839;BME280;39219;53.678;9.856;2022-12-20T04:15:56;101010.91;;;7.78;100.00
52839;BME280;39219;53.678;9.856;2022-12-20T04:18:23;101009.13;;;7.79;100.00
52839;BME280;39219;53.678;9.856;2022-12-20T04:20:51;101011.75;;;7.79;100.00
52839;BME280;39219;53.678;9.856;2022-12-20T04:23:18;101006.50;;;7.77;100.00
52839;BME280;39219;53.678;9.856;2022-12-20T04:25:45;100996.78;;;7.79;100.00
52839;BME280;39219;53.678;9.856;2022-12-20T04:28:12;100989.78;;;7.74;100.00
52839;BME280;39219;53.678;9.856;2022-12-20T04:30:38;100991.59;;;7.65;100.00
52839;BME280;39219;53.678;9.856;2022-12-20T04:33:05;101002.13;;;7.73;100.00
52839;BME280;39219;53.678;9.856;2022-12-20T04:35:31;101001.25;;;7.71;100.00
52839;BME280;39219;53.678;9.856;2022-12-20T04:37:58;100996.00;;;7.66;100.00
52839;BME280;39219;53.678;9.856;2022-12-20T04:40:24;100984.50;;;7.75;100.00
52839;BME280;39219;53.678;9.856;2022-12-20T04:42:52;100988.00;;;7.76;100.00
52839;BME280;39219;53.678;9.856;2022-12-20T04:45:18;100992.47;;;7.69;100.00
52839;BME280;39219;53.678;9.856;2022-12-20T04:47:45;100986.28;;;7.68;100.00
52839;BME280;39219;53.678;9.856;2022-12-20T04:50:11;100996.06;;;7.60;100.00
52839;BME280;39219;53.678;9.856;2022-12-20T04:52:38;100990.75;;;7.62;100.00
52839;BME280;39219;53.678;9.856;2022-12-20T04:55:22;100994.22;;;7.65;100.00
52839;BME280;39219;53.678;9.856;2022-12-20T04:57:49;100985.50;;;7.59;100.00
52839;BME280;39219;53.678;9.856;2022-12-20T05:00:17;101001.38;;;7.57;100.00
52839;BME280;39219;53.678;9.856;2022-12-20T05:02:44;100999.66;;;7.48;100.00
52839;BME280;39219;53.678;9.856;2022-12-20T05:05:10;100990.84;;;7.49;100.00
52839;BME280;39219;53.678;9.856;2022-12-20T05:07:37;100992.59;;;7.50;100.00
52839;BME280;39219;53.678;9.856;2022-12-20T05:10:04;100997.91;;;7.49;100.00
52839;BME280;39219;53.678;9.856;2022-12-20T05:12:30;100993.47;;;7.51;100.00
52839;BME280;39219;53.678;9.856;2022-12-20T05:14:57;100987.38;;;7.41;100.00
52839;BME280;39219;53.678;9.856;2022-12-20T05:17:25;100984.72;;;7.43;100.00
52839;BME280;39219;53.678;9.856;2022-12-20T05:19:51;100981.22;;;7.40;100.00
52839;BME280;39219;53.678;9.856;2022-12-20T05:22:17;100975.91;;;7.44;100.00
52839;BME280;39219;53.678;9.856;2022-12-20T05:25:01;100964.44;;;7.43;100.00
52839;BME280;39219;53.678;9.856;2022-12-20T05:27:45;100976.81;;;7.43;100.00
52839;BME280;39219;53.678;9.856;2022-12-20T05:30:12;100967.94;;;7.48;100.00
52839;BME280;39219;53.678;9.856;2022-12-20T05:32:41;100970.56;;;7.51;100.00
52839;BME280;39219;53.678;9.856;2022-12-20T05:35:08;100971.47;;;7.47;100.00
52839;BME280;39219;53.678;9.856;2022-12-20T05:37:35;100963.56;;;7.46;100.00
52839;BME280;39219;53.678;9.856;2022-12-20T05:40:01;100963.59;;;7.43;100.00
52839;BME280;39219;53.678;9.856;2022-12-20T05:42:29;100956.47;;;7.51;100.00
52839;BME280;39219;53.678;9.856;2022-12-20T05:44:55;100960.00;;;7.48;100.00
52839;BME280;39219;53.678;9.856;2022-12-20T05:47:22;100958.25;;;7.49;100.00
52839;BME280;39219;53.678;9.856;2022-12-20T05:49:50;100966.19;;;7.47;100.00
52839;BME280;39219;53.678;9.856;2022-12-20T05:52:16;100965.31;;;7.50;100.00
52839;BME280;39219;53.678;9.856;2022-12-20T05:54:43;100969.69;;;7.51;100.00
52839;BME280;39219;53.678;9.856;2022-12-20T05:57:09;100953.78;;;7.55;100.00
52839;BME280;39219;53.678;9.856;2022-12-20T05:59:36;100956.47;;;7.54;100.00
52839;BME280;39219;53.678;9.856;2022-12-20T06:02:02;100956.44;;;7.55;100.00
52839;BME280;39219;53.678;9.856;2022-12-20T06:04:30;100956.44;;;7.57;100.00
52839;BME280;39219;53.678;9.856;2022-12-20T06:06:57;100956.47;;;7.52;100.00
52839;BME280;39219;53.678;9.856;2022-12-20T06:09:24;100959.09;;;7.55;100.00
52839;BME280;39219;53.678;9.856;2022-12-20T06:11:51;100960.84;;;7.53;100.00
52839;BME280;39219;53.678;9.856;2022-12-20T06:14:17;100958.13;;;7.66;100.00
52839;BME280;39219;53.678;9.856;2022-12-20T06:16:44;100968.69;;;7.64;100.00
52839;BME280;39219;53.678;9.856;2022-12-20T06:19:10;100974.91;;;7.62;100.00
52839;BME280;39219;53.678;9.856;2022-12-20T06:21:37;100957.31;;;7.59;100.00
52839;BME280;39219;53.678;9.856;2022-12-20T06:24:05;100958.13;;;7.66;100.00
52839;BME280;39219;53.678;9.856;2022-12-20T06:26:32;100965.13;;;7.70;100.00
52839;BME280;39219;53.678;9.856;2022-12-20T06:29:00;100952.84;;;7.66;100.00
52839;BME280;39219;53.678;9.856;2022-12-20T06:31:27;100957.16;;;7.75;100.00
52839;BME280;39219;53.678;9.856;2022-12-20T06:33:53;100949.22;;;7.79;100.00
52839;BME280;39219;53.678;9.856;2022-12-20T06:36:20;100956.25;;;7.80;100.00
52839;BME280;39219;53.678;9.856;2022-12-20T06:38:47;100948.34;;;7.77;100.00
52839;BME280;39219;53.678;9.856;2022-12-20T06:41:15;100944.69;;;7.89;100.00
52839;BME280;39219;53.678;9.856;2022-12-20T06:43:41;100945.53;;;7.94;100.00
52839;BME280;39219;53.678;9.856;2022-12-20T06:46:07;100941.13;;;7.95;100.00
52839;BME280;39219;53.678;9.856;2022-12-20T06:48:34;100942.88;;;7.97;100.00
52839;BME280;39219;53.678;9.856;2022-12-20T06:51:00;100932.19;;;8.05;100.00
52839;BME280;39219;53.678;9.856;2022-12-20T06:53:27;100964.81;;;8.06;100.00
52839;BME280;39219;53.678;9.856;2022-12-20T06:55:53;100956.00;;;8.05;100.00
52839;BME280;39219;53.678;9.856;2022-12-20T06:58:21;100961.31;;;8.02;100.00
52839;BME280;39219;53.678;9.856;2022-12-20T07:00:48;100961.28;;;8.05;100.00
52839;BME280;39219;53.678;9.856;2022-12-20T07:03:15;100993.91;;;8.04;100.00
52839;BME280;39219;53.678;9.856;2022-12-20T07:05:41;100967.47;;;8.04;100.00
52839;BME280;39219;53.678;9.856;2022-12-20T07:08:08;100973.66;;;8.03;100.00
52839;BME280;39219;53.678;9.856;2022-12-20T07:10:35;100984.22;;;8.03;100.00
52839;BME280;39219;53.678;9.856;2022-12-20T07:13:02;100978.94;;;8.03;100.00
52839;BME280;39219;53.678;9.856;2022-12-20T07:15:30;100980.66;;;8.09;100.00
52839;BME280;39219;53.678;9.856;2022-12-20T07:17:57;100969.16;;;8.13;100.00
52839;BME280;39219;53.678;9.856;2022-12-20T07:20:23;100977.13;;;8.10;100.00
52839;BME280;39219;53.678;9.856;2022-12-20T07:22:50;100966.50;;;8.16;100.00
52839;BME280;39219;53.678;9.856;2022-12-20T07:25:16;100957.59;;;8.23;100.00
52839;BME280;39219;53.678;9.856;2022-12-20T07:27:45;100958.50;;;8.21;100.00
52839;BME280;39219;53.678;9.856;2022-12-20T07:30:12;100965.63;;;8.14;100.00
52839;BME280;39219;53.678;9.856;2022-12-20T07:32:40;100958.50;;;8.21;100.00
52839;BME280;39219;53.678;9.856;2022-12-20T07:35:08;100949.78;;;8.11;100.00
52839;BME280;39219;53.678;9.856;2022-12-20T07:37:35;100958.66;;;8.05;100.00
52839;BME280;39219;53.678;9.856;2022-12-20T07:40:03;100951.63;;;8.03;100.00
52839;BME280;39219;53.678;9.856;2022-12-20T07:42:29;100944.41;;;8.19;100.00
52839;BME280;39219;53.678;9.856;2022-12-20T07:44:56;100955.88;;;8.18;100.00
52839;BME280;39219;53.678;9.856;2022-12-20T07:47:22;100928.53;;;8.19;100.00
52839;BME280;39219;53.678;9.856;2022-12-20T07:49:50;100948.84;;;8.18;100.00
52839;BME280;39219;53.678;9.856;2022-12-20T07:52:20;100965.53;;;8.22;100.00
52839;BME280;39219;53.678;9.856;2022-12-20T07:54:50;100958.41;;;8.28;100.00
52839;BME280;39219;53.678;9.856;2022-12-20T07:57:22;100946.09;;;8.26;100.00
52839;BME280;39219;53.678;9.856;2022-12-20T07:59:53;100956.69;;;8.26;100.00
52839;BME280;39219;53.678;9.856;2022-12-20T08:02:24;100960.19;;;8.28;100.00
52839;BME280;39219;53.678;9.856;2022-12-20T08:04:54;100941.69;;;8.25;100.00
52839;BME280;39219;53.678;9.856;2022-12-20T08:07:21;100952.31;;;8.23;100.00
52839;BME280;39219;53.678;9.856;2022-12-20T08:09:48;100942.59;;;8.25;100.00
52839;BME280;39219;53.678;9.856;2022-12-20T08:12:16;100946.03;;;8.32;100.00
52839;BME280;39219;53.678;9.856;2022-12-20T08:14:44;100950.47;;;8.30;100.00
52839;BME280;39219;53.678;9.856;2022-12-20T08:17:11;100950.50;;;8.27;100.00
52839;BME280;39219;53.678;9.856;2022-12-20T08:19:37;100939.81;;;8.35;100.00
52839;BME280;39219;53.678;9.856;2022-12-20T08:22:05;100946.06;;;8.29;100.00
52839;BME280;39219;53.678;9.856;2022-12-20T08:24:32;100916.16;;;8.21;100.00
52839;BME280;39219;53.678;9.856;2022-12-20T08:26:59;100940.91;;;8.18;100.00
52839;BME280;39219;53.678;9.856;2022-12-20T08:29:25;100935.56;;;8.23;100.00
52839;BME280;39219;53.678;9.856;2022-12-20T08:31:52;100939.16;;;8.15;100.00
52839;BME280;39219;53.678;9.856;2022-12-20T08:34:18;100932.00;;;8.24;100.00
52839;BME280;39219;53.678;9.856;2022-12-20T08:36:44;100921.34;;;8.33;100.00
52839;BME280;39219;53.678;9.856;2022-12-20T08:39:12;100918.66;;;8.35;100.00
52839;BME280;39219;53.678;9.856;2022-12-20T08:41:39;100909.78;;;8.40;100.00
52839;BME280;39219;53.678;9.856;2022-12-20T08:44:05;100915.16;;;8.33;100.00
52839;BME280;39219;53.678;9.856;2022-12-20T08:46:33;100893.84;;;8.45;100.00
52839;BME280;39219;53.678;9.856;2022-12-20T08:49:01;100902.66;;;8.49;100.00
52839;BME280;39219;53.678;9.856;2022-12-20T08:51:27;100901.78;;;8.47;100.00
52839;BME280;39219;53.678;9.856;2022-12-20T08:53:54;100896.41;;;8.56;100.00
52839;BME280;39219;53.678;9.856;2022-12-20T08:56:22;100901.66;;;8.59;100.00
52839;BME280;39219;53.678;9.856;2022-12-20T08:58:49;100895.50;;;8.55;100.00
52839;BME280;39219;53.678;9.856;2022-12-20T09:01:17;100915.75;;;8.61;100.00
52839;BME280;39219;53.678;9.856;2022-12-20T09:03:44;100912.13;;;8.67;100.00
52839;BME280;39219;53.678;9.856;2022-12-20T09:06:13;100905.13;;;8.63;100.00
52839;BME280;39219;53.678;9.856;2022-12-20T09:08:40;100906.84;;;8.65;100.00
52839;BME280;39219;53.678;9.856;2022-12-20T09:11:08;100907.84;;;8.58;100.00
52839;BME280;39219;53.678;9.856;2022-12-20T09:13:37;100907.69;;;8.69;100.00
52839;BME280;39219;53.678;9.856;2022-12-20T09:16:05;100904.16;;;8.70;100.00
52839;BME280;39219;53.678;9.856;2022-12-20T09:18:32;100910.31;;;8.70;100.00
52839;BME280;39219;53.678;9.856;2022-12-20T09:21:00;100903.13;;;8.80;100.00
52839;BME280;39219;53.678;9.856;2022-12-20T09:23:27;100918.06;;;8.87;100.00
52839;BME280;39219;53.678;9.856;2022-12-20T09:25:53;100906.53;;;8.90;100.00
52839;BME280;39219;53.678;9.856;2022-12-20T09:28:20;100923.34;;;8.86;100.00
52839;BME280;39219;53.678;9.856;2022-12-20T09:30:48;100925.91;;;8.94;100.00
52839;BME280;39219;53.678;9.856;2022-12-20T09:33:15;100915.34;;;8.91;100.00
52839;BME280;39219;53.678;9.856;2022-12-20T09:35:44;100935.50;;;9.02;100.00
52839;BME280;39219;53.678;9.856;2022-12-20T09:38:10;100924.97;;;8.95;100.00
52839;BME280;39219;53.678;9.856;2022-12-20T09:40:37;100932.94;;;8.95;100.00
52839;BME280;39219;53.678;9.856;2022-12-20T09:43:08;100924.91;;;9.02;100.00
52839;BME280;39219;53.678;9.856;2022-12-20T09:45:35;100918.75;;;9.00;100.00
52839;BME280;39219;53.678;9.856;2022-12-20T09:48:05;100930.16;;;9.04;100.00
52839;BME280;39219;53.678;9.856;2022-12-20T09:50:42;100909.97;;;8.95;100.00
52839;BME280;39219;53.678;9.856;2022-12-20T09:53:19;100911.84;;;8.87;100.00
52839;BME280;39219;53.678;9.856;2022-12-20T09:55:55;100920.78;;;8.80;100.00
52839;BME280;39219;53.678;9.856;2022-12-20T09:58:36;100912.75;;;8.87;100.00
52839;BME280;39219;53.678;9.856;2022-12-20T10:01:15;100914.59;;;8.81;100.00
52839;BME280;39219;53.678;9.856;2022-12-20T10:03:43;100898.81;;;8.73;100.00
52839;BME280;39219;53.678;9.856;2022-12-20T10:06:16;100909.28;;;8.81;100.00
52839;BME280;39219;53.678;9.856;2022-12-20T10:08:51;100886.44;;;8.75;100.00
52839;BME280;39219;53.678;9.856;2022-12-20T10:11:36;100896.09;;;8.78;100.00
52839;BME280;39219;53.678;9.856;2022-12-20T10:14:18;100890.66;;;8.87;100.00
52839;BME280;39219;53.678;9.856;2022-12-20T10:16:51;100899.56;;;8.83;100.00
52839;BME280;39219;53.678;9.856;2022-12-20T10:19:38;100891.53;;;8.89;100.00
52839;BME280;39219;53.678;9.856;2022-12-20T10:22:15;100891.44;;;8.95;100.00
52839;BME280;39219;53.678;9.856;2022-12-20T10:24:48;100879.91;;;8.99;100.00
52839;BME280;39219;53.678;9.856;2022-12-20T10:27:18;100871.97;;;8.99;100.00
52839;BME280;39219;53.678;9.856;2022-12-20T10:29:46;100862.31;;;8.95;100.00
52839;BME280;39219;53.678;9.856;2022-12-20T10:32:15;100863.16;;;8.96;100.00
52839;BME280;39219;53.678;9.856;2022-12-20T10:34:51;100857.69;;;9.08;100.00
52839;BME280;39219;53.678;9.856;2022-12-20T10:37:18;100854.00;;;9.18;100.00
52839;BME280;39219;53.678;9.856;2022-12-20T10:39:47;100834.75;;;9.09;100.00
52839;BME280;39219;53.678;9.856;2022-12-20T10:42:28;100832.69;;;9.26;100.00
52839;BME280;39219;53.678;9.856;2022-12-20T10:44:57;100838.91;;;9.25;100.00
52839;BME280;39219;53.678;9.856;2022-12-20T10:47:34;100845.72;;;9.39;100.00
52839;BME280;39219;53.678;9.856;2022-12-20T10:50:14;100843.94;;;9.39;100.00
52839;BME280;39219;53.678;9.856;2022-12-20T10:52:41;100836.50;;;9.61;100.00
52839;BME280;39219;53.678;9.856;2022-12-20T10:55:31;100824.09;;;9.62;100.00
52839;BME280;39219;53.678;9.856;2022-12-20T10:58:02;100822.22;;;9.67;100.00
52839;BME280;39219;53.678;9.856;2022-12-20T11:00:29;100821.44;;;9.62;100.00
52839;BME280;39219;53.678;9.856;2022-12-20T11:03:11;100831.13;;;9.63;100.00
52839;BME280;39219;53.678;9.856;2022-12-20T11:05:39;100817.09;;;9.59;100.00
52839;BME280;39219;53.678;9.856;2022-12-20T11:08:12;100829.44;;;9.60;100.00
52839;BME280;39219;53.678;9.856;2022-12-20T11:10:39;100820.47;;;9.66;100.00
52839;BME280;39219;53.678;9.856;2022-12-20T11:13:19;100825.03;;;9.59;100.00
52839;BME280;39219;53.678;9.856;2022-12-20T11:15:47;100821.66;;;9.51;100.00
52839;BME280;39219;53.678;9.856;2022-12-20T11:18:20;100798.63;;;9.55;100.00
52839;BME280;39219;53.678;9.856;2022-12-20T11:20:57;100808.31;;;9.56;100.00
52839;BME280;39219;53.678;9.856;2022-12-20T11:23:33;100810.03;;;9.58;100.00
52839;BME280;39219;53.678;9.856;2022-12-20T11:26:14;100792.38;;;9.59;100.00
52839;BME280;39219;53.678;9.856;2022-12-20T11:28:52;100804.63;;;9.63;100.00
52839;BME280;39219;53.678;9.856;2022-12-20T11:31:33;100805.53;;;9.63;100.00
52839;BME280;39219;53.678;9.856;2022-12-20T11:34:17;100786.81;;;9.71;100.00
52839;BME280;39219;53.678;9.856;2022-12-20T11:37:02;100801.03;;;9.67;100.00
52839;BME280;39219;53.678;9.856;2022-12-20T11:39:35;100775.28;;;9.74;100.00
52839;BME280;39219;53.678;9.856;2022-12-20T11:42:10;100777.94;;;9.74;100.00
52839;BME280;39219;53.678;9.856;2022-12-20T11:44:51;100780.63;;;9.71;100.00
52839;BME280;39219;53.678;9.856;2022-12-20T11:47:32;100774.38;;;9.75;100.00
52839;BME280;39219;53.678;9.856;2022-12-20T11:50:16;100755.81;;;9.73;100.00
52839;BME280;39219;53.678;9.856;2022-12-20T11:52:50;100784.81;;;9.84;100.00
52839;BME280;39219;53.678;9.856;2022-12-20T11:55:22;100765.47;;;9.79;100.00
52839;BME280;39219;53.678;9.856;2022-12-20T11:57:55;100774.31;;;9.76;100.00
52839;BME280;39219;53.678;9.856;2022-12-20T12:00:22;100771.66;;;9.78;100.00
52839;BME280;39219;53.678;9.856;2022-12-20T12:02:54;100772.56;;;9.77;100.00
52839;BME280;39219;53.678;9.856;2022-12-20T12:05:24;100763.84;;;9.70;100.00
52839;BME280;39219;53.678;9.856;2022-12-20T12:07:57;100774.31;;;9.76;100.00
52839;BME280;39219;53.678;9.856;2022-12-20T12:10:29;100769.13;;;9.72;100.00
52839;BME280;39219;53.678;9.856;2022-12-20T12:13:01;100763.78;;;9.73;100.00
52839;BME280;39219;53.678;9.856;2022-12-20T12:15:33;100767.41;;;9.69;100.00
52839;BME280;39219;53.678;9.856;2022-12-20T12:18:04;100766.38;;;9.76;100.00
52839;BME280;39219;53.678;9.856;2022-12-20T12:20:35;100767.44;;;9.68;100.00
52839;BME280;39219;53.678;9.856;2022-12-20T12:23:14;100755.03;;;9.70;100.00
52839;BME280;39219;53.678;9.856;2022-12-20T12:25:44;100759.53;;;9.65;100.00
52839;BME280;39219;53.678;9.856;2022-12-20T12:28:11;100764.91;;;9.61;100.00
52839;BME280;39219;53.678;9.856;2022-12-20T12:30:43;100739.13;;;9.68;100.00
52839;BME280;39219;53.678;9.856;2022-12-20T12:33:15;100735.91;;;9.52;100.00
52839;BME280;39219;53.678;9.856;2022-12-20T12:36:10;100751.88;;;9.49;100.00
52839;BME280;39219;53.678;9.856;2022-12-20T12:39:00;100753.72;;;9.45;100.00
52839;BME280;39219;53.678;9.856;2022-12-20T12:41:58;100736.13;;;9.41;100.00
52839;BME280;39219;53.678;9.856;2022-12-20T12:44:38;100724.88;;;9.28;100.00
52839;BME280;39219;53.678;9.856;2022-12-20T12:47:11;100732.75;;;9.31;100.00
52839;BME280;39219;53.678;9.856;2022-12-20T12:49:40;100723.09;;;9.29;100.00
52839;BME280;39219;53.678;9.856;2022-12-20T12:52:27;100719.50;;;9.31;100.00
52839;BME280;39219;53.678;9.856;2022-12-20T12:54:55;100723.91;;;9.32;100.00
52839;BME280;39219;53.678;9.856;2022-12-20T12:57:22;100726.75;;;9.23;100.00
52839;BME280;39219;53.678;9.856;2022-12-20T12:59:49;100731.91;;;9.31;100.00
52839;BME280;39219;53.678;9.856;2022-12-20T13:05:33;100720.50;;;9.27;100.00
52839;BME280;39219;53.678;9.856;2022-12-20T13:08:00;100716.09;;;9.26;100.00